Terminal Aerodrome Forecast
Issued by NWS Paducah, KY

Home | Current Version | Previous Version | Text Only | Print | Product List | Glossary On
Versions: 1 2 3 4 5 6 7 8 9 10 11 12 13 14 15 16 17 18 19 20 21 22 23 24
787
FTUS43 KPAH 260931 AAB
TAFPAH
TAF AMD
KPAH 260931Z 2610/2706 20005KT P6SM BKN050
     FM261100 19004KT 6SM BR BKN020
     FM261400 20010KT P6SM BKN040
     FM270100 18006KT P6SM BKN040=

USA.gov is the U.S. government's official web portal to all federal, state and local government web resources and services.